Haworth, United Kingdom
Current Conditions -  °F | °C
As of 11:50 PM on Saturday 20 Dec 2014 (Local Time) from EGNM Reporting Station
Rain Showers Rain Showers  
Wind Chill: 33°   Ceiling: Unl
Heat Index: 43°   Visibility: 6mi
Dew Point: 39°   Wind: 24mph
Humidity: 87%   Direction: 260°W
Pressure: 30.27"   Gusts: NA
Location:  53.83°N, 1.95°W
Report Text: EGNM 202350Z 26021KT 9999 -SHRA FEW036 06/04 Q1025
Loading
Personal Weather Stations






























Interactive Weather Map New forecast layout! Learn more

10-Day Weather Forecast

Advertisements
Track Severe Weather on mobile